createdAt,value
2023-02-26T00:01:25.735Z,1.20
2023-02-26T00:03:56.212Z,1.21
2023-02-26T00:06:24.603Z,1.21
2023-02-26T00:08:52.112Z,1.21
2023-02-26T00:11:19.996Z,1.21
2023-02-26T00:13:47.233Z,1.21
2023-02-26T00:16:26.738Z,1.20
2023-02-26T00:18:56.118Z,1.21
2023-02-26T00:21:24.181Z,1.23
2023-02-26T00:23:51.961Z,1.23
2023-02-26T00:26:19.585Z,1.24
2023-02-26T00:28:47.412Z,1.25
2023-02-26T00:31:16.379Z,1.27
2023-02-26T00:33:44.619Z,1.27
2023-02-26T00:36:30.471Z,1.27
2023-02-26T00:39:19.636Z,1.28
2023-02-26T00:41:47.827Z,1.28
2023-02-26T00:44:15.093Z,1.29
2023-02-26T00:46:49.253Z,1.29
2023-02-26T00:49:23.607Z,1.27
2023-02-26T00:51:57.813Z,1.27
2023-02-26T00:54:30.677Z,1.27
2023-02-26T00:56:58.852Z,1.26
2023-02-26T00:59:25.960Z,1.27
2023-02-26T01:01:53.316Z,1.28
2023-02-26T01:04:22.609Z,1.28
2023-02-26T01:06:55.523Z,1.29
2023-02-26T01:09:33.204Z,1.30
2023-02-26T01:12:05.162Z,1.30
2023-02-26T01:14:32.788Z,1.30
2023-02-26T01:17:11.693Z,1.30
2023-02-26T01:19:57.592Z,1.31
2023-02-26T01:22:47.912Z,1.30
2023-02-26T01:25:23.340Z,1.29
2023-02-26T01:27:50.723Z,1.27
2023-02-26T01:30:18.909Z,1.27
2023-02-26T01:32:53.468Z,1.28
2023-02-26T01:35:27.528Z,1.29
2023-02-26T01:38:15.352Z,1.28
2023-02-26T01:41:12.772Z,1.27
2023-02-26T01:43:50.990Z,1.25
2023-02-26T01:46:28.653Z,1.27
2023-02-26T01:48:58.294Z,1.27
2023-02-26T01:52:02.719Z,1.25
2023-02-26T01:54:32.796Z,1.24
2023-02-26T01:57:08.642Z,1.22
2023-02-26T01:59:39.209Z,1.19
2023-02-26T02:02:09.460Z,1.18
2023-02-26T02:04:37.559Z,1.17
2023-02-26T02:07:05.776Z,1.18
2023-02-26T02:09:32.845Z,1.15
2023-02-26T02:12:18.848Z,1.13
2023-02-26T02:15:12.300Z,1.12
2023-02-26T02:17:53.148Z,1.11
2023-02-26T02:20:49.221Z,1.10
2023-02-26T02:23:43.145Z,1.10
2023-02-26T02:26:28.772Z,1.09
2023-02-26T02:29:08.240Z,1.06
2023-02-26T02:31:57.288Z,1.05
2023-02-26T02:34:47.476Z,1.04
2023-02-26T02:37:20.186Z,1.03
2023-02-26T02:39:54.165Z,1.03
2023-02-26T02:42:34.901Z,1.02
2023-02-26T02:45:11.207Z,1.00
2023-02-26T02:47:42.519Z,1.00
2023-02-26T02:50:27.310Z,1.00
2023-02-26T02:52:59.911Z,0.99
2023-02-26T02:55:34.079Z,0.99
2023-02-26T02:58:11.044Z,0.97
2023-02-26T03:00:46.264Z,0.95
2023-02-26T03:03:24.072Z,0.93
2023-02-26T03:05:51.212Z,0.91
2023-02-26T03:08:23.498Z,0.89
2023-02-26T03:10:50.627Z,0.89
2023-02-26T03:13:22.749Z,0.88
2023-02-26T03:15:53.238Z,0.89
2023-02-26T03:18:45.032Z,0.88
2023-02-26T03:21:19.728Z,0.87
2023-02-26T03:24:00.107Z,0.87
2023-02-26T03:26:47.778Z,0.87
2023-02-26T03:29:18.228Z,0.87
2023-02-26T03:31:51.451Z,0.87
2023-02-26T03:34:26.942Z,0.89
2023-02-26T03:37:00.880Z,0.89
2023-02-26T03:39:38.093Z,0.90
2023-02-26T03:42:22.344Z,0.90
2023-02-26T03:45:09.796Z,0.88
2023-02-26T03:47:42.331Z,0.86
2023-02-26T03:50:21.654Z,0.85
2023-02-26T03:53:06.171Z,0.82
2023-02-26T03:56:02.177Z,0.79
2023-02-26T03:58:48.082Z,0.78
2023-02-26T04:02:03.957Z,0.75
2023-02-26T04:04:41.787Z,0.72
2023-02-26T04:07:12.226Z,0.69
2023-02-26T04:09:47.645Z,0.70
2023-02-26T04:12:15.129Z,0.66
2023-02-26T04:14:46.084Z,0.66
2023-02-26T04:17:13.336Z,0.64
2023-02-26T04:19:40.602Z,0.63
2023-02-26T04:22:07.723Z,0.64
2023-02-26T04:24:35.252Z,0.64
2023-02-26T04:27:02.605Z,0.65
2023-02-26T04:29:30.297Z,0.64
2023-02-26T04:31:57.546Z,0.64
2023-02-26T04:34:24.785Z,0.64
2023-02-26T04:36:52.828Z,0.62
2023-02-26T04:39:20.310Z,0.61
2023-02-26T04:41:47.272Z,0.60
2023-02-26T04:44:14.704Z,0.58
2023-02-26T04:46:42.457Z,0.58
2023-02-26T04:49:09.825Z,0.58
2023-02-26T04:51:37.073Z,0.58
2023-02-26T04:54:04.439Z,0.57
2023-02-26T04:56:33.044Z,0.55
2023-02-26T04:59:00.896Z,0.55
2023-02-26T05:01:30.120Z,0.53
2023-02-26T05:03:58.894Z,0.50
2023-02-26T05:06:26.152Z,0.49
2023-02-26T05:08:53.262Z,0.47
2023-02-26T05:11:20.252Z,0.46
2023-02-26T05:13:47.404Z,0.44
2023-02-26T05:16:14.471Z,0.43
2023-02-26T05:18:42.478Z,0.42
2023-02-26T05:21:09.576Z,0.41
2023-02-26T05:23:37.690Z,0.38
2023-02-26T05:26:04.831Z,0.37
2023-02-26T05:28:33.245Z,0.36
2023-02-26T05:31:01.128Z,0.36
2023-02-26T05:33:28.177Z,0.35
2023-02-26T05:35:56.925Z,0.34
2023-02-26T05:38:23.891Z,0.33
2023-02-26T05:40:50.807Z,0.33
2023-02-26T05:43:17.778Z,0.34
2023-02-26T05:45:46.497Z,0.33
2023-02-26T05:48:13.456Z,0.32
2023-02-26T05:50:40.521Z,0.32
2023-02-26T05:53:08.178Z,0.32
2023-02-26T05:55:35.124Z,0.33
2023-02-26T05:58:02.140Z,0.34
2023-02-26T06:00:29.364Z,0.35
2023-02-26T06:02:56.668Z,0.34
2023-02-26T06:05:23.773Z,0.32
2023-02-26T06:07:50.896Z,0.32
2023-02-26T06:10:17.978Z,0.30
2023-02-26T06:12:44.969Z,0.31
2023-02-26T06:15:12.077Z,0.30
2023-02-26T06:17:40.771Z,0.30
2023-02-26T06:20:09.028Z,0.30
2023-02-26T06:22:36.055Z,0.30
2023-02-26T06:25:03.157Z,0.30
2023-02-26T06:27:30.205Z,0.30
2023-02-26T06:29:57.162Z,0.31
2023-02-26T06:32:24.182Z,0.33
2023-02-26T06:34:51.183Z,0.34
2023-02-26T06:37:18.105Z,0.34
2023-02-26T06:39:45.534Z,0.32
2023-02-26T06:42:12.579Z,0.34
2023-02-26T06:44:39.543Z,0.35
2023-02-26T06:47:07.246Z,0.38
2023-02-26T06:49:34.231Z,0.42
2023-02-26T06:52:01.217Z,0.45
2023-02-26T06:54:28.225Z,0.45
2023-02-26T06:56:57.228Z,0.44
2023-02-26T06:59:24.218Z,0.47
2023-02-26T07:01:51.174Z,0.49
2023-02-26T07:04:20.526Z,0.48
2023-02-26T07:06:47.644Z,0.49
2023-02-26T07:09:14.585Z,0.51
2023-02-26T07:11:41.613Z,0.50
2023-02-26T07:14:08.568Z,0.49
2023-02-26T07:16:35.611Z,0.48
2023-02-26T07:19:02.681Z,0.49
2023-02-26T07:21:29.717Z,0.49
2023-02-26T07:23:56.589Z,0.48
2023-02-26T07:26:23.975Z,0.47
2023-02-26T07:28:51.263Z,0.46
2023-02-26T07:31:18.405Z,0.45
2023-02-26T07:33:45.535Z,0.48
2023-02-26T07:36:12.584Z,0.49
2023-02-26T07:38:39.605Z,0.49
2023-02-26T07:41:06.641Z,0.51
2023-02-26T07:43:33.594Z,0.56
2023-02-26T07:46:00.460Z,0.60
2023-02-26T07:48:27.451Z,0.65
2023-02-26T07:50:54.967Z,0.64
2023-02-26T07:53:22.036Z,0.69
2023-02-26T07:55:49.188Z,0.75
2023-02-26T07:58:16.545Z,0.76
2023-02-26T08:00:43.925Z,0.82
2023-02-26T08:03:10.922Z,0.88
2023-02-26T08:05:37.877Z,0.90
2023-02-26T08:08:04.842Z,0.91
2023-02-26T08:10:32.272Z,0.87
2023-02-26T08:12:59.244Z,0.86
2023-02-26T08:15:26.294Z,0.86
2023-02-26T08:17:53.957Z,0.85
2023-02-26T08:20:20.956Z,0.89
2023-02-26T08:22:49.511Z,0.94
2023-02-26T08:25:16.554Z,1.00
2023-02-26T08:27:43.493Z,1.06
2023-02-26T08:30:11.085Z,1.11
2023-02-26T08:32:39.350Z,1.20
2023-02-26T08:35:06.508Z,1.28
2023-02-26T08:37:33.490Z,1.26
2023-02-26T08:40:00.439Z,1.26
2023-02-26T08:42:27.553Z,1.28
2023-02-26T08:44:54.399Z,1.38
2023-02-26T08:47:28.438Z,1.50
2023-02-26T08:49:56.495Z,1.56
2023-02-26T08:52:36.190Z,1.57
2023-02-26T08:55:03.222Z,1.58
2023-02-26T08:57:30.256Z,1.58
2023-02-26T08:59:57.164Z,1.42
2023-02-26T09:02:24.123Z,1.30
2023-02-26T09:04:51.071Z,1.22
2023-02-26T09:07:18.060Z,1.11
2023-02-26T09:09:45.146Z,1.02
2023-02-26T09:12:12.269Z,1.01
2023-02-26T09:14:39.268Z,0.99
2023-02-26T09:17:06.392Z,0.89
2023-02-26T09:19:33.689Z,0.84
2023-02-26T09:22:00.819Z,0.82
2023-02-26T09:24:29.657Z,0.80
2023-02-26T09:26:56.965Z,0.82
2023-02-26T09:29:24.101Z,0.88
2023-02-26T09:31:51.637Z,1.05
2023-02-26T09:34:19.978Z,1.22
2023-02-26T09:36:47.369Z,1.45
2023-02-26T09:39:17.483Z,1.74
2023-02-26T09:41:51.572Z,1.97
2023-02-26T09:44:25.132Z,2.19
2023-02-26T09:47:13.702Z,2.29
2023-02-26T09:49:50.400Z,2.37
2023-02-26T09:52:31.623Z,2.58
2023-02-26T09:55:04.696Z,2.73
2023-02-26T09:57:35.247Z,2.86
2023-02-26T10:00:17.286Z,2.80
2023-02-26T10:03:44.311Z,2.61
2023-02-26T10:06:26.431Z,2.55
2023-02-26T10:09:08.799Z,2.56
2023-02-26T10:11:57.663Z,2.63
2023-02-26T10:15:00.054Z,2.41
2023-02-26T10:17:41.265Z,2.30
2023-02-26T10:20:20.613Z,2.29
2023-02-26T10:22:58.692Z,2.23
2023-02-26T10:25:43.747Z,2.06
2023-02-26T10:28:13.702Z,2.09
2023-02-26T10:30:43.524Z,2.23
2023-02-26T10:33:18.159Z,2.32
2023-02-26T10:35:54.023Z,2.42
2023-02-26T10:38:25.559Z,2.53
2023-02-26T10:40:55.624Z,2.52
2023-02-26T10:43:29.705Z,2.38
2023-02-26T10:46:06.118Z,2.27
2023-02-26T10:49:21.457Z,2.15
2023-02-26T10:51:52.119Z,2.11
2023-02-26T10:54:36.829Z,2.07
2023-02-26T10:57:04.060Z,2.07
2023-02-26T10:59:31.425Z,2.09
2023-02-26T11:01:59.465Z,2.19
2023-02-26T11:04:27.749Z,2.29
2023-02-26T11:06:57.418Z,2.45
2023-02-26T11:09:28.563Z,2.48
2023-02-26T11:12:01.182Z,2.46
2023-02-26T11:14:30.770Z,2.46
2023-02-26T11:17:01.375Z,2.45
2023-02-26T11:19:32.566Z,2.42
2023-02-26T11:22:03.494Z,2.33
2023-02-26T11:24:35.880Z,2.25
2023-02-26T11:27:06.057Z,2.21
2023-02-26T11:29:43.130Z,2.16
2023-02-26T11:32:18.303Z,2.17
2023-02-26T11:34:49.165Z,2.19
2023-02-26T11:37:27.513Z,2.21
2023-02-26T11:39:59.966Z,2.14
2023-02-26T11:42:28.767Z,2.03
2023-02-26T11:44:59.176Z,1.94
2023-02-26T11:47:30.140Z,1.82
2023-02-26T11:50:04.961Z,1.78
2023-02-26T11:52:31.796Z,1.73
2023-02-26T11:55:05.853Z,1.72
2023-02-26T11:57:33.160Z,1.65
2023-02-26T12:00:16.323Z,1.62
2023-02-26T12:02:43.283Z,1.63
2023-02-26T12:05:23.133Z,1.68
2023-02-26T12:07:50.098Z,1.66
2023-02-26T12:10:23.367Z,1.64
2023-02-26T12:13:16.845Z,1.68
2023-02-26T12:16:10.112Z,1.72
2023-02-26T12:18:54.525Z,1.79
2023-02-26T12:21:56.162Z,1.83
2023-02-26T12:25:01.648Z,1.88
2023-02-26T12:27:55.241Z,1.91
2023-02-26T12:30:46.528Z,1.91
2023-02-26T12:33:22.850Z,1.88
2023-02-26T12:35:52.506Z,1.82
2023-02-26T12:38:34.484Z,1.79
2023-02-26T12:41:15.796Z,1.75
2023-02-26T12:44:07.594Z,1.69
2023-02-26T12:46:50.191Z,1.59
2023-02-26T12:49:41.221Z,1.48
2023-02-26T12:52:18.299Z,1.40
2023-02-26T12:55:08.672Z,1.34
2023-02-26T12:57:55.804Z,1.31
2023-02-26T13:00:35.366Z,1.29
2023-02-26T13:03:23.833Z,1.32
2023-02-26T13:06:12.798Z,1.36
2023-02-26T13:08:58.993Z,1.40
2023-02-26T13:11:55.741Z,1.46
2023-02-26T13:15:07.391Z,1.51
2023-02-26T13:17:52.111Z,1.54
2023-02-26T13:20:25.701Z,1.51
2023-02-26T13:23:10.041Z,1.48
2023-02-26T13:25:51.201Z,1.46
2023-02-26T13:28:24.210Z,1.40
2023-02-26T13:30:56.154Z,1.32
2023-02-26T13:33:28.287Z,1.25
2023-02-26T13:35:56.948Z,1.13
2023-02-26T13:38:44.546Z,1.04
2023-02-26T13:41:33.280Z,0.95
2023-02-26T13:44:29.652Z,0.88
2023-02-26T13:47:17.091Z,0.85
2023-02-26T13:50:12.582Z,0.81
2023-02-26T13:53:09.433Z,0.75
2023-02-26T13:55:42.849Z,0.70
2023-02-26T13:58:22.014Z,0.67
2023-02-26T14:01:07.990Z,0.67
2023-02-26T14:03:49.711Z,0.70
2023-02-26T14:06:23.625Z,0.72
2023-02-26T14:08:56.814Z,0.71
2023-02-26T14:11:46.294Z,0.71
2023-02-26T14:14:37.063Z,0.73
2023-02-26T14:17:07.452Z,0.76
2023-02-26T14:19:41.877Z,0.77
2023-02-26T14:22:08.785Z,0.82
2023-02-26T14:24:44.862Z,0.80
2023-02-26T14:27:11.824Z,0.77
2023-02-26T14:30:04.129Z,0.77
2023-02-26T14:32:53.252Z,0.77
2023-02-26T14:35:27.383Z,0.77
2023-02-26T14:38:25.999Z,0.76
2023-02-26T14:41:05.271Z,0.77
2023-02-26T14:43:52.280Z,0.83
2023-02-26T14:46:36.176Z,0.84
2023-02-26T14:49:07.140Z,0.85
2023-02-26T14:52:07.621Z,0.82
2023-02-26T14:55:15.202Z,0.78
2023-02-26T14:57:58.858Z,0.75
2023-02-26T15:00:35.706Z,0.73
2023-02-26T15:03:27.717Z,0.72
2023-02-26T15:06:18.359Z,0.72
2023-02-26T15:09:01.464Z,0.72
2023-02-26T15:12:00.987Z,0.73
2023-02-26T15:14:56.520Z,0.71
2023-02-26T15:17:54.903Z,0.66
2023-02-26T15:20:36.405Z,0.58
2023-02-26T15:23:46.891Z,0.55
2023-02-26T15:26:38.947Z,0.55
2023-02-26T15:29:09.939Z,0.57
2023-02-26T15:31:52.458Z,0.58
2023-02-26T15:34:22.262Z,0.59
2023-02-26T15:36:53.409Z,0.62
2023-02-26T15:39:23.957Z,0.58
2023-02-26T15:41:54.298Z,0.56
2023-02-26T15:44:31.463Z,0.54
2023-02-26T15:47:03.885Z,0.53
2023-02-26T15:49:39.760Z,0.51
2023-02-26T15:52:11.846Z,0.46
2023-02-26T15:54:45.950Z,0.43
2023-02-26T15:57:14.742Z,0.38
2023-02-26T16:00:15.717Z,0.36
2023-02-26T16:02:44.961Z,0.33
2023-02-26T16:05:15.944Z,0.30
2023-02-26T16:07:42.910Z,0.27
2023-02-26T16:10:28.143Z,0.24
2023-02-26T16:12:55.305Z,0.22
2023-02-26T16:15:31.235Z,0.18
2023-02-26T16:18:01.378Z,0.14
2023-02-26T16:20:36.016Z,0.09
2023-02-26T16:23:10.092Z,0.05
2023-02-26T16:25:43.474Z,-0.00
2023-02-26T16:28:23.004Z,-0.03
2023-02-26T16:30:54.410Z,-0.06
2023-02-26T16:33:24.470Z,-0.09
2023-02-26T16:35:56.980Z,-0.14
2023-02-26T16:38:30.260Z,-0.18
2023-02-26T16:41:05.171Z,-0.22
2023-02-26T16:43:34.953Z,-0.24
2023-02-26T16:46:04.832Z,-0.26
2023-02-26T16:48:46.230Z,-0.26
2023-02-26T16:51:19.696Z,-0.26
2023-02-26T16:53:48.996Z,-0.26
2023-02-26T16:56:19.077Z,-0.25
2023-02-26T16:59:05.635Z,-0.25
2023-02-26T17:01:39.772Z,-0.24
2023-02-26T17:04:09.115Z,-0.24
2023-02-26T17:06:39.433Z,-0.25
2023-02-26T17:09:09.945Z,-0.28
2023-02-26T17:11:44.415Z,-0.29
2023-02-26T17:14:18.620Z,-0.30
2023-02-26T17:16:46.591Z,-0.30
2023-02-26T17:19:13.915Z,-0.31
2023-02-26T17:21:59.716Z,-0.30
2023-02-26T17:24:33.675Z,-0.32
2023-02-26T17:27:04.096Z,-0.34
2023-02-26T17:29:42.087Z,-0.36
2023-02-26T17:32:17.729Z,-0.38
2023-02-26T17:34:45.008Z,-0.40
2023-02-26T17:37:13.132Z,-0.41
2023-02-26T17:39:43.543Z,-0.40
2023-02-26T17:42:12.916Z,-0.40
2023-02-26T17:44:39.861Z,-0.38
2023-02-26T17:47:15.811Z,-0.37
2023-02-26T17:49:44.785Z,-0.38
2023-02-26T17:52:13.294Z,-0.39
2023-02-26T17:54:45.520Z,-0.40
2023-02-26T17:57:22.754Z,-0.41
2023-02-26T17:59:52.381Z,-0.43
2023-02-26T18:02:26.765Z,-0.42
2023-02-26T18:05:00.637Z,-0.42
2023-02-26T18:07:29.787Z,-0.41
2023-02-26T18:09:59.258Z,-0.40
2023-02-26T18:12:32.098Z,-0.39
2023-02-26T18:15:02.272Z,-0.37
2023-02-26T18:17:34.296Z,-0.37
2023-02-26T18:20:09.712Z,-0.38
2023-02-26T18:22:38.447Z,-0.39
2023-02-26T18:25:08.158Z,-0.41
2023-02-26T18:27:39.534Z,-0.40
2023-02-26T18:30:23.976Z,-0.41
2023-02-26T18:32:52.465Z,-0.40
2023-02-26T18:35:22.498Z,-0.39
2023-02-26T18:37:53.201Z,-0.41
2023-02-26T18:40:23.352Z,-0.41
2023-02-26T18:42:50.904Z,-0.40
2023-02-26T18:45:19.292Z,-0.39
2023-02-26T18:47:47.609Z,-0.37
2023-02-26T18:50:16.885Z,-0.37
2023-02-26T18:52:44.284Z,-0.33
2023-02-26T18:55:12.541Z,-0.29
2023-02-26T18:57:41.940Z,-0.28
2023-02-26T19:00:16.758Z,-0.27
2023-02-26T19:02:46.484Z,-0.24
2023-02-26T19:05:15.795Z,-0.24
2023-02-26T19:07:43.923Z,-0.25
2023-02-26T19:10:14.230Z,-0.28
2023-02-26T19:12:42.536Z,-0.31
2023-02-26T19:15:12.198Z,-0.33
2023-02-26T19:17:41.953Z,-0.37
2023-02-26T19:20:10.156Z,-0.40
2023-02-26T19:22:37.507Z,-0.43
2023-02-26T19:25:06.167Z,-0.45
2023-02-26T19:27:34.409Z,-0.46
2023-02-26T19:30:02.909Z,-0.46
2023-02-26T19:32:32.089Z,-0.44
2023-02-26T19:35:01.637Z,-0.43
2023-02-26T19:37:28.709Z,-0.44
2023-02-26T19:39:58.245Z,-0.42
2023-02-26T19:42:28.308Z,-0.42
2023-02-26T19:44:55.539Z,-0.43
2023-02-26T19:47:22.943Z,-0.46
2023-02-26T19:49:50.504Z,-0.49
2023-02-26T19:52:19.425Z,-0.53
2023-02-26T19:54:46.454Z,-0.56
2023-02-26T19:57:13.515Z,-0.56
2023-02-26T19:59:41.878Z,-0.55
2023-02-26T20:02:09.270Z,-0.53
2023-02-26T20:04:38.060Z,-0.52
2023-02-26T20:07:06.869Z,-0.53
2023-02-26T20:09:34.849Z,-0.55
2023-02-26T20:12:05.861Z,-0.56
2023-02-26T20:14:35.422Z,-0.57
2023-02-26T20:17:02.615Z,-0.59
2023-02-26T20:19:29.716Z,-0.61
2023-02-26T20:21:58.027Z,-0.61
2023-02-26T20:24:25.905Z,-0.61
2023-02-26T20:26:53.685Z,-0.63
2023-02-26T20:29:23.138Z,-0.64
2023-02-26T20:31:50.477Z,-0.63
2023-02-26T20:34:19.385Z,-0.62
2023-02-26T20:36:49.332Z,-0.61
2023-02-26T20:39:20.419Z,-0.59
2023-02-26T20:41:47.569Z,-0.59
2023-02-26T20:44:14.886Z,-0.58
2023-02-26T20:46:42.295Z,-0.59
2023-02-26T20:49:10.990Z,-0.60
2023-02-26T20:51:42.271Z,-0.58
2023-02-26T20:54:14.058Z,-0.57
2023-02-26T20:56:41.200Z,-0.56
2023-02-26T20:59:09.018Z,-0.56
2023-02-26T21:01:36.171Z,-0.56
2023-02-26T21:04:06.226Z,-0.57
2023-02-26T21:06:33.455Z,-0.57
2023-02-26T21:09:02.503Z,-0.58
2023-02-26T21:11:30.674Z,-0.60
2023-02-26T21:13:58.878Z,-0.60
2023-02-26T21:16:29.673Z,-0.62
2023-02-26T21:18:59.586Z,-0.63
2023-02-26T21:21:27.575Z,-0.63
2023-02-26T21:23:55.016Z,-0.62
2023-02-26T21:26:23.181Z,-0.59
2023-02-26T21:28:50.229Z,-0.59
2023-02-26T21:31:20.153Z,-0.61
2023-02-26T21:33:48.361Z,-0.63
2023-02-26T21:36:16.309Z,-0.64
2023-02-26T21:38:43.648Z,-0.63
2023-02-26T21:41:10.763Z,-0.62
2023-02-26T21:43:38.550Z,-0.62
2023-02-26T21:46:05.779Z,-0.62
2023-02-26T21:48:32.908Z,-0.62
2023-02-26T21:51:00.510Z,-0.62
2023-02-26T21:53:27.931Z,-0.62
2023-02-26T21:55:56.209Z,-0.63
2023-02-26T21:58:24.951Z,-0.63
2023-02-26T22:00:51.962Z,-0.64
2023-02-26T22:03:19.412Z,-0.65
2023-02-26T22:05:50.367Z,-0.65
2023-02-26T22:08:18.309Z,-0.63
2023-02-26T22:10:45.343Z,-0.61
2023-02-26T22:13:13.426Z,-0.60
2023-02-26T22:15:41.385Z,-0.60
2023-02-26T22:18:08.470Z,-0.58
2023-02-26T22:20:35.627Z,-0.55
2023-02-26T22:23:03.954Z,-0.55
2023-02-26T22:25:31.665Z,-0.58
2023-02-26T22:27:58.812Z,-0.59
2023-02-26T22:30:25.990Z,-0.57
2023-02-26T22:32:52.960Z,-0.57
2023-02-26T22:35:19.976Z,-0.55
2023-02-26T22:37:46.970Z,-0.53
2023-02-26T22:40:14.329Z,-0.51
2023-02-26T22:42:43.021Z,-0.49
2023-02-26T22:45:16.416Z,-0.47
2023-02-26T22:47:47.743Z,-0.46
2023-02-26T22:50:15.816Z,-0.44
2023-02-26T22:52:43.258Z,-0.44
2023-02-26T22:55:11.375Z,-0.47
2023-02-26T22:57:38.793Z,-0.52
2023-02-26T23:00:10.804Z,-0.57
2023-02-26T23:02:38.367Z,-0.57
2023-02-26T23:05:08.633Z,-0.57
2023-02-26T23:07:36.822Z,-0.57
2023-02-26T23:10:06.066Z,-0.56
2023-02-26T23:12:33.208Z,-0.55
2023-02-26T23:15:00.518Z,-0.56
2023-02-26T23:17:27.592Z,-0.58
2023-02-26T23:19:54.637Z,-0.59
2023-02-26T23:22:22.065Z,-0.59
2023-02-26T23:24:49.230Z,-0.59
2023-02-26T23:27:16.699Z,-0.57
2023-02-26T23:29:45.068Z,-0.55
2023-02-26T23:32:13.295Z,-0.54
2023-02-26T23:34:40.554Z,-0.52
2023-02-26T23:37:07.577Z,-0.51
2023-02-26T23:39:34.620Z,-0.50
2023-02-26T23:42:01.482Z,-0.51
2023-02-26T23:44:31.390Z,-0.51
2023-02-26T23:46:58.451Z,-0.50
2023-02-26T23:49:25.425Z,-0.47
2023-02-26T23:51:52.430Z,-0.46
2023-02-26T23:54:19.381Z,-0.50
2023-02-26T23:56:47.422Z,-0.54
2023-02-26T23:59:14.492Z,-0.56
